VE-0097 weather

Jose Heliport
El José, Anzoategui, Venezuela

Public forecast

Using degrees Celsius for public forecast. Weather courtesy of forecast.io.

METAR (pilot weather report)

Report is more than 6 hours old.

Closest report is General José Antonio Anzoategui International Airport, 10.7 nm (19.8 km) ENE. Retrieved 2018/10/22 20:00 UTC (5 months ago):

SVBC 222000Z /////KT 9000 DZBKN020 25/25 Q1008

TAF (pilot weather forecast)

Forecast is more than 12 hours old.

Closest forecast is General José Antonio Anzoategui International Airport, 10.7 nm (19.8 km) ENE. Retrieved 2019/03/26 00:55 UTC (1 day ago):

TAF SVBC 252200Z 2600/2700 04003KT 9999 FEW016 TX31/2617Z TN23/2606Z BECMG 2600/2604 13001KT CAVOK